createdAt,value
2023-09-17T00:03:38.251Z,21.13
2023-09-17T00:07:40.305Z,22.10
2023-09-17T00:11:41.390Z,19.30
2023-09-17T00:15:43.292Z,18.33
2023-09-17T00:19:44.808Z,16.80
2023-09-17T00:23:46.030Z,16.10
2023-09-17T00:27:47.135Z,17.33
2023-09-17T00:31:48.301Z,15.87
2023-09-17T00:35:49.533Z,16.40
2023-09-17T00:39:50.643Z,15.03
2023-09-17T00:43:52.094Z,16.30
2023-09-17T00:47:53.471Z,16.77
2023-09-17T00:51:54.915Z,14.83
2023-09-17T00:55:56.231Z,15.57
2023-09-17T00:59:57.583Z,14.83
2023-09-17T01:04:00.273Z,14.83
2023-09-17T01:08:01.619Z,15.43
2023-09-17T01:12:03.661Z,14.13
2023-09-17T01:16:06.333Z,14.70
2023-09-17T01:20:16.405Z,15.77
2023-09-17T01:24:27.268Z,14.53
2023-09-17T01:28:29.670Z,18.17
2023-09-17T01:32:31.463Z,16.87
2023-09-17T01:36:34.445Z,17.47
2023-09-17T01:40:36.048Z,16.80
2023-09-17T01:44:38.641Z,17.97
2023-09-17T01:48:41.794Z,19.37
2023-09-17T01:52:44.314Z,17.37
2023-09-17T01:56:45.277Z,14.00
2023-09-17T02:00:46.268Z,14.47
2023-09-17T02:04:47.354Z,15.60
2023-09-17T02:08:48.388Z,17.10
2023-09-17T02:12:49.552Z,15.80
2023-09-17T02:16:51.505Z,15.53
2023-09-17T02:20:52.583Z,16.37
2023-09-17T02:24:54.012Z,16.67
2023-09-17T02:28:55.095Z,15.93
2023-09-17T02:32:56.597Z,16.80
2023-09-17T02:36:58.441Z,16.20
2023-09-17T02:41:00.321Z,14.63
2023-09-17T02:45:03.470Z,16.17
2023-09-17T02:49:04.684Z,15.43
2023-09-17T02:53:07.728Z,15.13
2023-09-17T02:57:09.147Z,14.40
2023-09-17T03:01:17.406Z,12.43
2023-09-17T03:05:18.401Z,11.07
2023-09-17T03:09:19.411Z,9.60
2023-09-17T03:13:22.458Z,10.87
2023-09-17T03:17:23.736Z,11.40
2023-09-17T03:21:24.826Z,10.80
2023-09-17T03:25:26.240Z,10.53
2023-09-17T03:29:27.405Z,9.27
2023-09-17T03:33:29.901Z,8.57
2023-09-17T03:37:31.041Z,8.80
2023-09-17T03:41:33.039Z,8.23
2023-09-17T03:45:34.529Z,7.40
2023-09-17T03:49:35.886Z,8.30
2023-09-17T03:53:37.534Z,8.30
2023-09-17T03:57:39.349Z,7.97
2023-09-17T04:01:40.614Z,7.97
2023-09-17T04:05:42.624Z,7.30
2023-09-17T04:09:43.673Z,7.33
2023-09-17T04:13:44.742Z,7.40
2023-09-17T04:17:50.539Z,8.07
2023-09-17T04:21:51.798Z,9.53
2023-09-17T04:25:54.787Z,8.60
2023-09-17T04:29:56.026Z,8.37
2023-09-17T04:33:57.312Z,8.50
2023-09-17T04:37:58.396Z,8.20
2023-09-17T04:41:59.575Z,8.60
2023-09-17T04:46:01.152Z,7.80
2023-09-17T04:50:03.798Z,8.10
2023-09-17T04:54:05.617Z,7.90
2023-09-17T04:58:06.793Z,9.00
2023-09-17T05:02:07.917Z,8.93
2023-09-17T05:06:09.567Z,8.93
2023-09-17T05:10:10.747Z,9.17
2023-09-17T05:14:11.791Z,9.87
2023-09-17T05:18:12.969Z,9.60
2023-09-17T05:22:14.373Z,8.60
2023-09-17T05:26:16.342Z,9.37
2023-09-17T05:30:17.778Z,10.40
2023-09-17T05:34:20.105Z,9.20
2023-09-17T05:38:21.313Z,10.13
2023-09-17T05:42:22.820Z,10.10
2023-09-17T05:46:23.890Z,9.60
2023-09-17T05:50:25.238Z,11.20
2023-09-17T05:54:26.553Z,10.77
2023-09-17T05:58:27.632Z,10.37
2023-09-17T06:02:29.077Z,11.63
2023-09-17T06:06:30.374Z,10.67
2023-09-17T06:10:31.437Z,11.53
2023-09-17T06:14:32.671Z,11.00
2023-09-17T06:18:34.931Z,11.13
2023-09-17T06:22:36.008Z,12.07
2023-09-17T06:26:37.506Z,11.87
2023-09-17T06:30:38.719Z,14.13
2023-09-17T06:34:40.985Z,16.30
2023-09-17T06:38:42.172Z,16.03
2023-09-17T06:42:43.311Z,15.93
2023-09-17T06:46:44.829Z,15.30
2023-09-17T06:50:45.932Z,15.57
2023-09-17T06:54:47.144Z,16.03
2023-09-17T06:58:48.583Z,14.17
2023-09-17T07:02:49.786Z,15.57
2023-09-17T07:06:51.070Z,16.30
2023-09-17T07:10:52.494Z,16.30
2023-09-17T07:14:53.652Z,20.30
2023-09-17T07:18:55.130Z,18.20
2023-09-17T07:22:56.347Z,18.13
2023-09-17T07:26:57.377Z,18.70
2023-09-17T07:30:58.602Z,18.77
2023-09-17T07:35:02.019Z,18.20
2023-09-17T07:39:04.430Z,18.47
2023-09-17T07:43:06.835Z,16.67
2023-09-17T07:47:09.879Z,17.07
2023-09-17T07:51:10.973Z,15.27
2023-09-17T07:55:12.135Z,15.20
2023-09-17T07:59:13.311Z,14.50
2023-09-17T08:03:18.323Z,16.30
2023-09-17T08:07:19.504Z,16.43
2023-09-17T08:11:22.036Z,14.97
2023-09-17T08:15:23.193Z,14.70
2023-09-17T08:19:24.265Z,14.73
2023-09-17T08:23:25.290Z,17.83
2023-09-17T08:27:26.466Z,16.07
2023-09-17T08:31:28.768Z,16.10
2023-09-17T08:35:30.410Z,14.70
2023-09-17T08:39:32.078Z,14.80
2023-09-17T08:43:34.471Z,15.87
2023-09-17T08:47:37.615Z,15.07
2023-09-17T08:51:42.002Z,11.63
2023-09-17T08:55:46.861Z,10.53
2023-09-17T08:59:56.177Z,11.13
2023-09-17T09:03:57.683Z,10.83
2023-09-17T09:07:59.421Z,11.57
2023-09-17T09:12:00.467Z,10.07
2023-09-17T09:16:02.604Z,9.33
2023-09-17T09:20:05.901Z,8.90
2023-09-17T09:24:07.454Z,8.37
2023-09-17T09:28:08.743Z,8.27
2023-09-17T09:32:11.265Z,8.70
2023-09-17T09:36:13.442Z,8.73
2023-09-17T09:40:15.149Z,7.93
2023-09-17T09:44:16.695Z,8.87
2023-09-17T09:48:17.801Z,8.60
2023-09-17T09:52:22.345Z,7.27
2023-09-17T09:56:29.022Z,7.03
2023-09-17T10:00:30.630Z,8.40
2023-09-17T10:04:32.050Z,7.33
2023-09-17T10:08:37.002Z,7.07
2023-09-17T10:12:38.131Z,6.93
2023-09-17T10:16:40.507Z,6.60
2023-09-17T10:20:44.176Z,6.53
2023-09-17T10:24:46.329Z,6.93
2023-09-17T10:28:48.561Z,6.10
2023-09-17T10:32:51.880Z,6.17
2023-09-17T10:36:54.137Z,6.23
2023-09-17T10:40:56.982Z,7.90
2023-09-17T10:45:00.189Z,7.83
2023-09-17T10:49:02.726Z,7.00
2023-09-17T10:53:05.468Z,6.90
2023-09-17T10:57:16.437Z,5.80
2023-09-17T11:01:23.929Z,6.43
2023-09-17T11:05:28.614Z,5.93
2023-09-17T11:09:29.774Z,6.50
2023-09-17T11:13:36.832Z,6.17
2023-09-17T11:17:38.724Z,6.47
2023-09-17T11:21:53.108Z,6.67
2023-09-17T11:25:55.370Z,6.23
2023-09-17T11:29:56.565Z,5.47
2023-09-17T11:33:58.184Z,6.10
2023-09-17T11:37:59.349Z,4.87
2023-09-17T11:42:06.410Z,6.47
2023-09-17T11:46:10.804Z,5.77
2023-09-17T11:50:13.973Z,5.33
2023-09-17T11:54:20.253Z,5.77
2023-09-17T11:58:21.738Z,5.80
2023-09-17T12:02:23.717Z,5.37
2023-09-17T12:06:27.347Z,6.20
2023-09-17T12:10:29.661Z,6.50
2023-09-17T12:14:32.727Z,6.00
2023-09-17T12:18:34.210Z,6.50
2023-09-17T12:22:35.188Z,5.47
2023-09-17T12:26:50.532Z,7.00
2023-09-17T12:30:51.713Z,6.77
2023-09-17T12:34:54.618Z,6.30
2023-09-17T12:38:55.813Z,6.63
2023-09-17T12:42:57.657Z,6.93
2023-09-17T12:46:59.746Z,6.07
2023-09-17T12:51:02.191Z,6.17
2023-09-17T12:55:04.308Z,5.80
2023-09-17T12:59:05.589Z,5.77
2023-09-17T13:03:14.630Z,6.10
2023-09-17T13:07:19.724Z,6.87
2023-09-17T13:11:20.918Z,5.33
2023-09-17T13:15:22.422Z,5.50
2023-09-17T13:19:23.746Z,5.07
2023-09-17T13:23:25.117Z,5.70
2023-09-17T13:27:30.128Z,5.33
2023-09-17T13:31:32.535Z,5.37
2023-09-17T13:35:33.887Z,5.27
2023-09-17T13:39:40.868Z,5.57
2023-09-17T13:43:41.947Z,6.67
2023-09-17T13:47:43.001Z,5.53
2023-09-17T13:51:44.352Z,5.17
2023-09-17T13:55:46.409Z,5.50
2023-09-17T13:59:47.564Z,5.77
2023-09-17T14:03:48.645Z,5.27
2023-09-17T14:07:49.662Z,5.70
2023-09-17T14:11:50.782Z,4.80
2023-09-17T14:15:51.831Z,5.00
2023-09-17T14:19:52.981Z,6.23
2023-09-17T14:23:54.040Z,6.27
2023-09-17T14:27:55.114Z,5.37
2023-09-17T14:31:56.167Z,5.63
2023-09-17T14:35:57.339Z,5.13
2023-09-17T14:39:58.393Z,6.10
2023-09-17T14:43:59.831Z,5.67
2023-09-17T14:48:01.059Z,5.07
2023-09-17T14:52:02.175Z,5.40
2023-09-17T14:56:03.730Z,5.60
2023-09-17T15:00:05.926Z,6.20
2023-09-17T15:04:07.617Z,5.77
2023-09-17T15:08:08.946Z,5.67
2023-09-17T15:12:10.882Z,5.17
2023-09-17T15:16:12.094Z,4.33
2023-09-17T15:20:13.919Z,5.17
2023-09-17T15:24:14.974Z,6.10
2023-09-17T15:28:16.197Z,6.50
2023-09-17T15:32:17.541Z,6.40
2023-09-17T15:36:19.545Z,5.17
2023-09-17T15:40:20.684Z,5.73
2023-09-17T15:44:23.323Z,6.20
2023-09-17T15:48:24.510Z,6.77
2023-09-17T15:52:25.547Z,6.40
2023-09-17T15:56:26.735Z,5.43
2023-09-17T16:00:27.802Z,6.87
2023-09-17T16:04:29.149Z,5.17
2023-09-17T16:08:30.261Z,6.70
2023-09-17T16:12:31.345Z,6.17
2023-09-17T16:16:32.517Z,6.03
2023-09-17T16:20:33.730Z,6.50
2023-09-17T16:24:35.096Z,5.70
2023-09-17T16:28:36.174Z,7.47
2023-09-17T16:32:39.290Z,8.23
2023-09-17T16:36:40.622Z,7.23
2023-09-17T16:40:43.596Z,6.07
2023-09-17T16:44:45.516Z,5.97
2023-09-17T16:48:47.968Z,6.40
2023-09-17T16:52:49.043Z,5.97
2023-09-17T16:56:50.142Z,7.87
2023-09-17T17:00:52.198Z,6.80
2023-09-17T17:04:55.329Z,6.27
2023-09-17T17:08:56.598Z,6.57
2023-09-17T17:12:58.309Z,6.63
2023-09-17T17:17:01.329Z,7.43
2023-09-17T17:21:03.269Z,12.60
2023-09-17T17:25:05.059Z,7.47
2023-09-17T17:29:06.166Z,7.27
2023-09-17T17:33:07.588Z,7.43
2023-09-17T17:37:08.957Z,9.43
2023-09-17T17:41:10.251Z,13.63
2023-09-17T17:45:11.434Z,13.00
2023-09-17T17:49:12.629Z,8.90
2023-09-17T17:53:13.878Z,7.27
2023-09-17T17:57:16.138Z,7.70
2023-09-17T18:01:18.380Z,7.97
2023-09-17T18:05:19.569Z,7.60
2023-09-17T18:09:21.353Z,7.87
2023-09-17T18:13:22.429Z,7.77
2023-09-17T18:17:25.533Z,8.83
2023-09-17T18:21:26.579Z,9.17
2023-09-17T18:25:30.143Z,9.67
2023-09-17T18:29:31.387Z,8.23
2023-09-17T18:33:34.378Z,8.63
2023-09-17T18:37:35.597Z,9.70
2023-09-17T18:41:36.843Z,9.07
2023-09-17T18:45:38.185Z,8.30
2023-09-17T18:49:40.552Z,8.23
2023-09-17T18:53:41.629Z,10.20
2023-09-17T18:57:43.830Z,9.23
2023-09-17T19:01:45.317Z,9.50
2023-09-17T19:05:46.448Z,9.10
2023-09-17T19:09:48.522Z,9.73
2023-09-17T19:13:49.949Z,10.53
2023-09-17T19:17:51.533Z,10.70
2023-09-17T19:21:52.639Z,10.30
2023-09-17T19:25:53.758Z,9.47
2023-09-17T19:29:54.930Z,11.00
2023-09-17T19:33:55.987Z,10.13
2023-09-17T19:37:57.319Z,11.10
2023-09-17T19:41:58.619Z,10.03
2023-09-17T19:46:00.409Z,10.00
2023-09-17T19:50:01.609Z,9.77
2023-09-17T19:54:04.603Z,11.43
2023-09-17T19:58:05.917Z,11.43
2023-09-17T20:02:07.255Z,10.43
2023-09-17T20:06:08.593Z,10.73
2023-09-17T20:10:15.157Z,12.27
2023-09-17T20:14:16.217Z,10.90
2023-09-17T20:18:17.480Z,11.60
2023-09-17T20:22:18.538Z,14.53
2023-09-17T20:26:19.600Z,10.83
2023-09-17T20:30:21.014Z,10.60
2023-09-17T20:34:23.602Z,11.83
2023-09-17T20:38:25.034Z,11.40
2023-09-17T20:42:26.225Z,10.43
2023-09-17T20:46:27.296Z,10.43
2023-09-17T20:50:29.465Z,13.77
2023-09-17T20:54:30.419Z,13.27
2023-09-17T20:58:32.211Z,14.53
2023-09-17T21:02:33.386Z,13.50
2023-09-17T21:06:34.798Z,12.33
2023-09-17T21:10:36.159Z,11.53
2023-09-17T21:14:37.601Z,12.27
2023-09-17T21:18:38.638Z,12.43
2023-09-17T21:22:41.421Z,12.67
2023-09-17T21:26:42.540Z,12.13
2023-09-17T21:30:44.475Z,11.47
2023-09-17T21:34:46.040Z,10.53
2023-09-17T21:38:47.037Z,10.77
2023-09-17T21:42:48.176Z,12.20
2023-09-17T21:46:49.414Z,12.37
2023-09-17T21:50:50.761Z,11.63
2023-09-17T21:54:52.543Z,12.03
2023-09-17T21:58:53.828Z,10.03
2023-09-17T22:02:57.528Z,11.20
2023-09-17T22:06:58.344Z,11.90
2023-09-17T22:11:05.770Z,13.07
2023-09-17T22:15:07.396Z,12.33
2023-09-17T22:19:09.957Z,11.63
2023-09-17T22:23:11.319Z,11.00
2023-09-17T22:27:14.346Z,10.77
2023-09-17T22:31:15.714Z,11.27
2023-09-17T22:35:16.807Z,11.70
2023-09-17T22:39:18.017Z,11.90
2023-09-17T22:43:19.034Z,11.57
2023-09-17T22:47:20.129Z,12.30
2023-09-17T22:51:23.076Z,12.10
2023-09-17T22:55:24.141Z,11.27
2023-09-17T22:59:25.626Z,12.03
2023-09-17T23:03:26.591Z,11.00
2023-09-17T23:07:27.587Z,11.90
2023-09-17T23:11:28.862Z,10.50
2023-09-17T23:15:29.912Z,12.30
2023-09-17T23:19:31.089Z,11.83
2023-09-17T23:23:32.544Z,11.60
2023-09-17T23:27:33.943Z,12.00
2023-09-17T23:31:38.482Z,14.40
2023-09-17T23:35:40.010Z,12.83
2023-09-17T23:39:44.465Z,11.87
2023-09-17T23:43:45.818Z,12.13
2023-09-17T23:47:47.107Z,14.87
2023-09-17T23:51:48.335Z,11.83
2023-09-17T23:55:49.506Z,10.93
2023-09-17T23:59:50.494Z,11.90
